sensor_id;sensor_type;location;lat;lon;timestamp;P1;durP1;ratioP1;P2;durP2;ratioP2
71856;SDS011;63344;46.980;28.882;2023-11-18T00:00:42;7.15;;;3.20;;
71856;SDS011;63344;46.980;28.882;2023-11-18T00:03:41;7.95;;;3.47;;
71856;SDS011;63344;46.980;28.882;2023-11-18T00:06:18;5.47;;;2.47;;
71856;SDS011;63344;46.980;28.882;2023-11-18T00:08:53;8.02;;;3.40;;
71856;SDS011;63344;46.980;28.882;2023-11-18T00:11:26;7.22;;;3.35;;
71856;SDS011;63344;46.980;28.882;2023-11-18T00:13:58;5.07;;;1.98;;
71856;SDS011;63344;46.980;28.882;2023-11-18T00:16:32;9.40;;;4.65;;
71856;SDS011;63344;46.980;28.882;2023-11-18T00:19:06;7.93;;;3.95;;
71856;SDS011;63344;46.980;28.882;2023-11-18T00:21:59;9.02;;;4.75;;
71856;SDS011;63344;46.980;28.882;2023-11-18T00:24:32;7.35;;;3.65;;
71856;SDS011;63344;46.980;28.882;2023-11-18T00:27:06;3.80;;;2.10;;
71856;SDS011;63344;46.980;28.882;2023-11-18T00:32:08;7.55;;;3.58;;
71856;SDS011;63344;46.980;28.882;2023-11-18T00:34:42;4.32;;;2.35;;
71856;SDS011;63344;46.980;28.882;2023-11-18T00:37:19;6.57;;;2.70;;
71856;SDS011;63344;46.980;28.882;2023-11-18T00:39:56;5.35;;;2.90;;
71856;SDS011;63344;46.980;28.882;2023-11-18T00:42:31;8.60;;;3.90;;
71856;SDS011;63344;46.980;28.882;2023-11-18T00:45:07;9.52;;;3.85;;
71856;SDS011;63344;46.980;28.882;2023-11-18T00:47:42;6.50;;;2.88;;
71856;SDS011;63344;46.980;28.882;2023-11-18T00:50:12;8.38;;;3.65;;
71856;SDS011;63344;46.980;28.882;2023-11-18T00:52:57;7.60;;;3.38;;
71856;SDS011;63344;46.980;28.882;2023-11-18T00:55:40;6.82;;;2.30;;
71856;SDS011;63344;46.980;28.882;2023-11-18T00:58:20;10.40;;;4.72;;
71856;SDS011;63344;46.980;28.882;2023-11-18T01:00:49;8.45;;;4.13;;
71856;SDS011;63344;46.980;28.882;2023-11-18T01:03:32;4.90;;;2.60;;
71856;SDS011;63344;46.980;28.882;2023-11-18T01:06:04;4.75;;;2.60;;
71856;SDS011;63344;46.980;28.882;2023-11-18T01:08:34;8.13;;;3.50;;
71856;SDS011;63344;46.980;28.882;2023-11-18T01:11:04;9.45;;;3.95;;
71856;SDS011;63344;46.980;28.882;2023-11-18T01:13:38;4.97;;;2.42;;
71856;SDS011;63344;46.980;28.882;2023-11-18T01:18:36;2.28;;;1.15;;
71856;SDS011;63344;46.980;28.882;2023-11-18T01:21:06;6.32;;;2.50;;
71856;SDS011;63344;46.980;28.882;2023-11-18T01:23:37;2.95;;;1.70;;
71856;SDS011;63344;46.980;28.882;2023-11-18T01:26:14;8.43;;;3.60;;
71856;SDS011;63344;46.980;28.882;2023-11-18T01:28:42;7.95;;;3.65;;
71856;SDS011;63344;46.980;28.882;2023-11-18T01:31:11;7.88;;;3.50;;
71856;SDS011;63344;46.980;28.882;2023-11-18T01:33:40;6.82;;;3.42;;
71856;SDS011;63344;46.980;28.882;2023-11-18T01:36:09;4.22;;;2.28;;
71856;SDS011;63344;46.980;28.882;2023-11-18T01:38:37;5.30;;;2.72;;
71856;SDS011;63344;46.980;28.882;2023-11-18T01:41:11;5.13;;;2.28;;
71856;SDS011;63344;46.980;28.882;2023-11-18T01:43:39;5.95;;;2.80;;
71856;SDS011;63344;46.980;28.882;2023-11-18T01:46:09;5.35;;;2.42;;
71856;SDS011;63344;46.980;28.882;2023-11-18T01:48:40;5.60;;;2.72;;
71856;SDS011;63344;46.980;28.882;2023-11-18T01:51:12;7.85;;;3.80;;
71856;SDS011;63344;46.980;28.882;2023-11-18T01:53:43;5.75;;;3.28;;
71856;SDS011;63344;46.980;28.882;2023-11-18T01:56:12;6.07;;;2.72;;
71856;SDS011;63344;46.980;28.882;2023-11-18T01:58:39;6.65;;;2.90;;
71856;SDS011;63344;46.980;28.882;2023-11-18T02:01:08;6.50;;;2.65;;
71856;SDS011;63344;46.980;28.882;2023-11-18T02:03:39;6.47;;;2.83;;
71856;SDS011;63344;46.980;28.882;2023-11-18T02:06:19;7.35;;;3.33;;
71856;SDS011;63344;46.980;28.882;2023-11-18T02:08:55;4.80;;;2.72;;
71856;SDS011;63344;46.980;28.882;2023-11-18T02:11:44;5.72;;;2.42;;
71856;SDS011;63344;46.980;28.882;2023-11-18T02:14:20;4.43;;;2.58;;
71856;SDS011;63344;46.980;28.882;2023-11-18T02:19:35;8.25;;;3.38;;
71856;SDS011;63344;46.980;28.882;2023-11-18T02:22:09;2.53;;;1.42;;
71856;SDS011;63344;46.980;28.882;2023-11-18T02:24:39;7.85;;;2.70;;
71856;SDS011;63344;46.980;28.882;2023-11-18T02:27:10;7.28;;;3.20;;
71856;SDS011;63344;46.980;28.882;2023-11-18T02:29:45;5.55;;;2.45;;
71856;SDS011;63344;46.980;28.882;2023-11-18T02:32:33;3.95;;;1.90;;
71856;SDS011;63344;46.980;28.882;2023-11-18T02:35:28;10.15;;;2.47;;
71856;SDS011;63344;46.980;28.882;2023-11-18T02:38:26;6.32;;;3.10;;
71856;SDS011;63344;46.980;28.882;2023-11-18T02:41:09;4.18;;;1.63;;
71856;SDS011;63344;46.980;28.882;2023-11-18T02:43:44;3.67;;;1.90;;
71856;SDS011;63344;46.980;28.882;2023-11-18T02:46:28;5.72;;;2.63;;
71856;SDS011;63344;46.980;28.882;2023-11-18T02:49:03;4.97;;;2.22;;
71856;SDS011;63344;46.980;28.882;2023-11-18T02:51:34;4.43;;;2.17;;
71856;SDS011;63344;46.980;28.882;2023-11-18T02:54:18;5.72;;;2.65;;
71856;SDS011;63344;46.980;28.882;2023-11-18T02:56:52;4.95;;;2.17;;
71856;SDS011;63344;46.980;28.882;2023-11-18T02:59:32;5.93;;;2.72;;
71856;SDS011;63344;46.980;28.882;2023-11-18T03:02:05;6.38;;;2.55;;
71856;SDS011;63344;46.980;28.882;2023-11-18T03:04:58;5.88;;;3.00;;
71856;SDS011;63344;46.980;28.882;2023-11-18T03:07:29;7.95;;;3.15;;
71856;SDS011;63344;46.980;28.882;2023-11-18T03:09:59;6.72;;;2.80;;
71856;SDS011;63344;46.980;28.882;2023-11-18T03:12:31;3.35;;;1.85;;
71856;SDS011;63344;46.980;28.882;2023-11-18T03:15:07;6.25;;;3.00;;
71856;SDS011;63344;46.980;28.882;2023-11-18T03:17:44;6.50;;;2.90;;
71856;SDS011;63344;46.980;28.882;2023-11-18T03:20:19;4.88;;;2.63;;
71856;SDS011;63344;46.980;28.882;2023-11-18T03:22:59;7.80;;;3.13;;
71856;SDS011;63344;46.980;28.882;2023-11-18T03:25:29;6.28;;;2.88;;
71856;SDS011;63344;46.980;28.882;2023-11-18T03:27:59;3.38;;;1.95;;
71856;SDS011;63344;46.980;28.882;2023-11-18T03:30:29;7.07;;;3.42;;
71856;SDS011;63344;46.980;28.882;2023-11-18T03:33:01;3.72;;;1.85;;
71856;SDS011;63344;46.980;28.882;2023-11-18T03:35:33;6.32;;;3.35;;
71856;SDS011;63344;46.980;28.882;2023-11-18T03:38:07;4.78;;;2.45;;
71856;SDS011;63344;46.980;28.882;2023-11-18T03:40:37;5.72;;;2.92;;
71856;SDS011;63344;46.980;28.882;2023-11-18T03:45:44;7.63;;;3.08;;
71856;SDS011;63344;46.980;28.882;2023-11-18T03:48:23;4.53;;;2.80;;
71856;SDS011;63344;46.980;28.882;2023-11-18T03:50:54;2.55;;;1.58;;
71856;SDS011;63344;46.980;28.882;2023-11-18T03:53:22;4.32;;;2.35;;
71856;SDS011;63344;46.980;28.882;2023-11-18T03:55:53;5.60;;;2.35;;
71856;SDS011;63344;46.980;28.882;2023-11-18T03:58:22;3.03;;;1.63;;
71856;SDS011;63344;46.980;28.882;2023-11-18T04:01:00;5.18;;;3.22;;
71856;SDS011;63344;46.980;28.882;2023-11-18T04:03:37;4.72;;;2.55;;
71856;SDS011;63344;46.980;28.882;2023-11-18T04:06:11;3.03;;;2.00;;
71856;SDS011;63344;46.980;28.882;2023-11-18T04:08:54;5.03;;;2.63;;
71856;SDS011;63344;46.980;28.882;2023-11-18T04:11:33;7.43;;;3.88;;
71856;SDS011;63344;46.980;28.882;2023-11-18T04:14:04;6.10;;;3.15;;
71856;SDS011;63344;46.980;28.882;2023-11-18T04:16:35;4.70;;;2.60;;
71856;SDS011;63344;46.980;28.882;2023-11-18T04:19:06;6.32;;;2.83;;
71856;SDS011;63344;46.980;28.882;2023-11-18T04:21:51;6.82;;;3.67;;
71856;SDS011;63344;46.980;28.882;2023-11-18T04:24:20;7.72;;;3.80;;
71856;SDS011;63344;46.980;28.882;2023-11-18T04:26:51;4.22;;;2.10;;
71856;SDS011;63344;46.980;28.882;2023-11-18T04:29:20;8.55;;;3.83;;
71856;SDS011;63344;46.980;28.882;2023-11-18T04:31:51;11.20;;;4.93;;
71856;SDS011;63344;46.980;28.882;2023-11-18T04:36:52;6.10;;;2.85;;
71856;SDS011;63344;46.980;28.882;2023-11-18T04:39:31;5.63;;;2.17;;
71856;SDS011;63344;46.980;28.882;2023-11-18T04:42:03;9.43;;;4.40;;
71856;SDS011;63344;46.980;28.882;2023-11-18T04:44:36;7.65;;;3.88;;
71856;SDS011;63344;46.980;28.882;2023-11-18T04:47:13;9.65;;;4.43;;
71856;SDS011;63344;46.980;28.882;2023-11-18T04:49:51;7.65;;;3.50;;
71856;SDS011;63344;46.980;28.882;2023-11-18T04:52:23;11.60;;;3.78;;
71856;SDS011;63344;46.980;28.882;2023-11-18T04:55:04;5.97;;;3.28;;
71856;SDS011;63344;46.980;28.882;2023-11-18T04:57:35;7.35;;;3.55;;
71856;SDS011;63344;46.980;28.882;2023-11-18T05:00:07;6.10;;;3.60;;
71856;SDS011;63344;46.980;28.882;2023-11-18T05:02:39;8.88;;;4.40;;
71856;SDS011;63344;46.980;28.882;2023-11-18T05:05:09;7.43;;;4.07;;
71856;SDS011;63344;46.980;28.882;2023-11-18T05:07:41;7.93;;;4.00;;
71856;SDS011;63344;46.980;28.882;2023-11-18T05:10:09;8.45;;;5.00;;
71856;SDS011;63344;46.980;28.882;2023-11-18T05:12:38;7.95;;;3.92;;
71856;SDS011;63344;46.980;28.882;2023-11-18T05:15:06;7.70;;;4.78;;
71856;SDS011;63344;46.980;28.882;2023-11-18T05:17:52;7.38;;;3.97;;
71856;SDS011;63344;46.980;28.882;2023-11-18T05:20:24;8.30;;;3.55;;
71856;SDS011;63344;46.980;28.882;2023-11-18T05:22:55;10.20;;;4.72;;
71856;SDS011;63344;46.980;28.882;2023-11-18T05:25:27;6.80;;;3.45;;
71856;SDS011;63344;46.980;28.882;2023-11-18T05:28:03;8.32;;;4.32;;
71856;SDS011;63344;46.980;28.882;2023-11-18T05:30:41;13.07;;;5.43;;
71856;SDS011;63344;46.980;28.882;2023-11-18T05:33:20;10.07;;;4.35;;
71856;SDS011;63344;46.980;28.882;2023-11-18T05:35:52;9.80;;;4.88;;
71856;SDS011;63344;46.980;28.882;2023-11-18T05:38:32;12.00;;;5.10;;
71856;SDS011;63344;46.980;28.882;2023-11-18T05:41:03;9.80;;;4.50;;
71856;SDS011;63344;46.980;28.882;2023-11-18T05:43:37;8.63;;;3.90;;
71856;SDS011;63344;46.980;28.882;2023-11-18T05:46:15;12.55;;;5.78;;
71856;SDS011;63344;46.980;28.882;2023-11-18T05:49:02;11.15;;;5.20;;
71856;SDS011;63344;46.980;28.882;2023-11-18T05:51:36;8.05;;;4.15;;
71856;SDS011;63344;46.980;28.882;2023-11-18T05:54:06;11.38;;;4.68;;
71856;SDS011;63344;46.980;28.882;2023-11-18T05:56:36;9.68;;;4.55;;
71856;SDS011;63344;46.980;28.882;2023-11-18T05:59:07;11.02;;;5.28;;
71856;SDS011;63344;46.980;28.882;2023-11-18T06:01:34;11.23;;;6.25;;
71856;SDS011;63344;46.980;28.882;2023-11-18T06:04:09;8.45;;;5.13;;
71856;SDS011;63344;46.980;28.882;2023-11-18T06:06:46;10.98;;;5.43;;
71856;SDS011;63344;46.980;28.882;2023-11-18T06:09:24;8.43;;;3.65;;
71856;SDS011;63344;46.980;28.882;2023-11-18T06:12:08;8.57;;;4.22;;
71856;SDS011;63344;46.980;28.882;2023-11-18T06:14:41;8.80;;;4.40;;
71856;SDS011;63344;46.980;28.882;2023-11-18T06:17:18;9.43;;;3.70;;
71856;SDS011;63344;46.980;28.882;2023-11-18T06:20:11;7.85;;;3.90;;
71856;SDS011;63344;46.980;28.882;2023-11-18T06:22:45;9.27;;;3.97;;
71856;SDS011;63344;46.980;28.882;2023-11-18T06:25:16;12.27;;;4.68;;
71856;SDS011;63344;46.980;28.882;2023-11-18T06:27:43;11.30;;;5.10;;
71856;SDS011;63344;46.980;28.882;2023-11-18T06:30:39;11.00;;;4.65;;
71856;SDS011;63344;46.980;28.882;2023-11-18T06:36:09;6.47;;;3.75;;
71856;SDS011;63344;46.980;28.882;2023-11-18T06:38:53;8.98;;;4.53;;
71856;SDS011;63344;46.980;28.882;2023-11-18T06:41:59;10.35;;;5.43;;
71856;SDS011;63344;46.980;28.882;2023-11-18T06:44:34;7.97;;;3.60;;
71856;SDS011;63344;46.980;28.882;2023-11-18T06:47:11;12.77;;;5.25;;
71856;SDS011;63344;46.980;28.882;2023-11-18T06:49:57;8.88;;;4.28;;
71856;SDS011;63344;46.980;28.882;2023-11-18T06:52:45;14.93;;;6.15;;
71856;SDS011;63344;46.980;28.882;2023-11-18T06:55:37;8.57;;;4.70;;
71856;SDS011;63344;46.980;28.882;2023-11-18T06:58:13;11.23;;;5.43;;
71856;SDS011;63344;46.980;28.882;2023-11-18T07:01:16;10.38;;;5.03;;
71856;SDS011;63344;46.980;28.882;2023-11-18T07:03:50;12.95;;;6.07;;
71856;SDS011;63344;46.980;28.882;2023-11-18T07:06:54;12.95;;;6.47;;
71856;SDS011;63344;46.980;28.882;2023-11-18T07:09:22;10.68;;;4.85;;
71856;SDS011;63344;46.980;28.882;2023-11-18T07:12:06;13.85;;;6.75;;
71856;SDS011;63344;46.980;28.882;2023-11-18T07:14:40;10.80;;;5.55;;
71856;SDS011;63344;46.980;28.882;2023-11-18T07:17:21;8.00;;;3.38;;
71856;SDS011;63344;46.980;28.882;2023-11-18T07:19:51;9.75;;;4.05;;
71856;SDS011;63344;46.980;28.882;2023-11-18T07:22:23;14.20;;;6.45;;
71856;SDS011;63344;46.980;28.882;2023-11-18T07:25:09;7.78;;;3.33;;
71856;SDS011;63344;46.980;28.882;2023-11-18T07:27:42;9.15;;;4.32;;
71856;SDS011;63344;46.980;28.882;2023-11-18T07:30:24;9.82;;;4.80;;
71856;SDS011;63344;46.980;28.882;2023-11-18T07:32:55;12.52;;;5.25;;
71856;SDS011;63344;46.980;28.882;2023-11-18T07:36:03;8.05;;;3.80;;
71856;SDS011;63344;46.980;28.882;2023-11-18T07:38:53;10.63;;;5.38;;
71856;SDS011;63344;46.980;28.882;2023-11-18T07:41:41;11.85;;;5.35;;
71856;SDS011;63344;46.980;28.882;2023-11-18T07:44:29;9.10;;;3.70;;
71856;SDS011;63344;46.980;28.882;2023-11-18T07:47:07;10.32;;;3.28;;
71856;SDS011;63344;46.980;28.882;2023-11-18T07:49:44;12.80;;;6.10;;
71856;SDS011;63344;46.980;28.882;2023-11-18T07:52:31;6.57;;;3.35;;
71856;SDS011;63344;46.980;28.882;2023-11-18T07:55:04;14.00;;;5.28;;
71856;SDS011;63344;46.980;28.882;2023-11-18T07:57:42;10.30;;;5.28;;
71856;SDS011;63344;46.980;28.882;2023-11-18T08:00:15;13.45;;;5.43;;
71856;SDS011;63344;46.980;28.882;2023-11-18T08:02:46;12.07;;;6.72;;
71856;SDS011;63344;46.980;28.882;2023-11-18T08:05:44;9.25;;;4.35;;
71856;SDS011;63344;46.980;28.882;2023-11-18T08:08:34;10.68;;;4.65;;
71856;SDS011;63344;46.980;28.882;2023-11-18T08:11:14;10.98;;;4.93;;
71856;SDS011;63344;46.980;28.882;2023-11-18T08:13:43;12.48;;;5.35;;
71856;SDS011;63344;46.980;28.882;2023-11-18T08:16:15;10.18;;;4.75;;
71856;SDS011;63344;46.980;28.882;2023-11-18T08:19:16;9.43;;;5.05;;
71856;SDS011;63344;46.980;28.882;2023-11-18T08:25:03;11.20;;;5.28;;
71856;SDS011;63344;46.980;28.882;2023-11-18T08:27:52;11.85;;;5.75;;
71856;SDS011;63344;46.980;28.882;2023-11-18T08:30:32;11.48;;;5.10;;
71856;SDS011;63344;46.980;28.882;2023-11-18T08:40:24;9.35;;;4.80;;
71856;SDS011;63344;46.980;28.882;2023-11-18T08:45:59;17.98;;;5.50;;
71856;SDS011;63344;46.980;28.882;2023-11-18T08:53:20;8.10;;;3.65;;
71856;SDS011;63344;46.980;28.882;2023-11-18T09:45:16;18.30;;;8.25;;
71856;SDS011;63344;46.980;28.882;2023-11-18T09:52:15;11.80;;;6.50;;
71856;SDS011;63344;46.980;28.882;2023-11-18T09:58:40;14.40;;;6.53;;
71856;SDS011;63344;46.980;28.882;2023-11-18T10:01:28;15.70;;;6.72;;
71856;SDS011;63344;46.980;28.882;2023-11-18T10:05:21;13.25;;;6.13;;
71856;SDS011;63344;46.980;28.882;2023-11-18T10:11:34;13.93;;;5.80;;
71856;SDS011;63344;46.980;28.882;2023-11-18T10:14:21;15.40;;;7.50;;
71856;SDS011;63344;46.980;28.882;2023-11-18T10:17:05;14.88;;;7.18;;
71856;SDS011;63344;46.980;28.882;2023-11-18T10:20:15;13.13;;;5.07;;
71856;SDS011;63344;46.980;28.882;2023-11-18T10:35:24;9.52;;;4.60;;
71856;SDS011;63344;46.980;28.882;2023-11-18T11:02:29;12.48;;;5.65;;
71856;SDS011;63344;46.980;28.882;2023-11-18T11:05:37;16.15;;;8.52;;
71856;SDS011;63344;46.980;28.882;2023-11-18T11:12:11;16.20;;;7.55;;
71856;SDS011;63344;46.980;28.882;2023-11-18T11:18:36;15.55;;;7.82;;
71856;SDS011;63344;46.980;28.882;2023-11-18T11:29:41;10.27;;;5.88;;
71856;SDS011;63344;46.980;28.882;2023-11-18T11:32:29;20.50;;;7.53;;
71856;SDS011;63344;46.980;28.882;2023-11-18T11:38:47;13.07;;;7.45;;
71856;SDS011;63344;46.980;28.882;2023-11-18T11:41:51;17.17;;;8.65;;
71856;SDS011;63344;46.980;28.882;2023-11-18T15:34:17;15.13;;;6.82;;
71856;SDS011;63344;46.980;28.882;2023-11-18T15:36:46;8.30;;;5.72;;
71856;SDS011;63344;46.980;28.882;2023-11-18T16:13:46;7.40;;;3.78;;
71856;SDS011;63344;46.980;28.882;2023-11-18T16:16:14;4.78;;;2.55;;
71856;SDS011;63344;46.980;28.882;2023-11-18T16:18:42;5.85;;;3.75;;
71856;SDS011;63344;46.980;28.882;2023-11-18T16:21:10;4.93;;;2.83;;
71856;SDS011;63344;46.980;28.882;2023-11-18T16:23:37;4.38;;;2.47;;
71856;SDS011;63344;46.980;28.882;2023-11-18T16:26:12;5.70;;;2.97;;
71856;SDS011;63344;46.980;28.882;2023-11-18T16:28:53;5.63;;;3.17;;
71856;SDS011;63344;46.980;28.882;2023-11-18T17:20:52;7.15;;;3.72;;
71856;SDS011;63344;46.980;28.882;2023-11-18T17:24:23;8.68;;;4.47;;
71856;SDS011;63344;46.980;28.882;2023-11-18T18:06:26;9.23;;;3.85;;
71856;SDS011;63344;46.980;28.882;2023-11-18T18:09:12;8.38;;;3.90;;
71856;SDS011;63344;46.980;28.882;2023-11-18T18:23:34;11.90;;;4.28;;
71856;SDS011;63344;46.980;28.882;2023-11-18T18:26:46;7.05;;;4.43;;
71856;SDS011;63344;46.980;28.882;2023-11-18T18:36:57;6.57;;;3.75;;
71856;SDS011;63344;46.980;28.882;2023-11-18T18:51:18;9.90;;;4.82;;
71856;SDS011;63344;46.980;28.882;2023-11-18T18:53:46;9.27;;;4.28;;
71856;SDS011;63344;46.980;28.882;2023-11-18T18:56:16;7.55;;;2.72;;
71856;SDS011;63344;46.980;28.882;2023-11-18T19:09:31;8.25;;;3.92;;
71856;SDS011;63344;46.980;28.882;2023-11-18T20:16:57;10.52;;;5.22;;
71856;SDS011;63344;46.980;28.882;2023-11-18T20:20:11;7.28;;;4.32;;
71856;SDS011;63344;46.980;28.882;2023-11-18T20:22:40;8.35;;;4.13;;
71856;SDS011;63344;46.980;28.882;2023-11-18T20:25:26;7.20;;;4.72;;
71856;SDS011;63344;46.980;28.882;2023-11-18T20:53:36;7.75;;;4.25;;
71856;SDS011;63344;46.980;28.882;2023-11-18T21:03:59;8.10;;;4.63;;
71856;SDS011;63344;46.980;28.882;2023-11-18T21:06:39;7.47;;;3.60;;
71856;SDS011;63344;46.980;28.882;2023-11-18T21:11:36;7.78;;;4.65;;
71856;SDS011;63344;46.980;28.882;2023-11-18T21:14:04;8.93;;;4.35;;
71856;SDS011;63344;46.980;28.882;2023-11-18T21:16:44;7.68;;;5.15;;
71856;SDS011;63344;46.980;28.882;2023-11-18T21:19:13;8.68;;;4.35;;
71856;SDS011;63344;46.980;28.882;2023-11-18T21:24:22;8.52;;;4.45;;
71856;SDS011;63344;46.980;28.882;2023-11-18T21:27:10;8.43;;;4.07;;
71856;SDS011;63344;46.980;28.882;2023-11-18T21:29:40;9.75;;;4.82;;
71856;SDS011;63344;46.980;28.882;2023-11-18T21:32:08;8.93;;;5.05;;
71856;SDS011;63344;46.980;28.882;2023-11-18T21:34:37;7.32;;;5.13;;
71856;SDS011;63344;46.980;28.882;2023-11-18T21:37:10;9.90;;;5.75;;
71856;SDS011;63344;46.980;28.882;2023-11-18T21:39:39;6.18;;;4.55;;
71856;SDS011;63344;46.980;28.882;2023-11-18T21:42:07;8.98;;;6.28;;
71856;SDS011;63344;46.980;28.882;2023-11-18T21:44:35;7.60;;;4.68;;
71856;SDS011;63344;46.980;28.882;2023-11-18T21:47:08;7.60;;;4.78;;
71856;SDS011;63344;46.980;28.882;2023-11-18T21:49:41;5.03;;;2.55;;
71856;SDS011;63344;46.980;28.882;2023-11-18T21:52:19;10.80;;;6.82;;
71856;SDS011;63344;46.980;28.882;2023-11-18T21:54:47;17.88;;;9.98;;
71856;SDS011;63344;46.980;28.882;2023-11-18T21:57:15;16.00;;;8.25;;
71856;SDS011;63344;46.980;28.882;2023-11-18T21:59:46;11.52;;;5.90;;
71856;SDS011;63344;46.980;28.882;2023-11-18T22:02:14;15.13;;;8.05;;
71856;SDS011;63344;46.980;28.882;2023-11-18T22:04:47;14.85;;;6.88;;
71856;SDS011;63344;46.980;28.882;2023-11-18T22:07:15;13.40;;;6.70;;
71856;SDS011;63344;46.980;28.882;2023-11-18T22:09:44;15.85;;;7.25;;
71856;SDS011;63344;46.980;28.882;2023-11-18T22:12:15;16.98;;;8.60;;
71856;SDS011;63344;46.980;28.882;2023-11-18T22:14:44;16.73;;;9.13;;
71856;SDS011;63344;46.980;28.882;2023-11-18T22:17:13;17.38;;;9.20;;
71856;SDS011;63344;46.980;28.882;2023-11-18T22:19:41;11.32;;;5.68;;
71856;SDS011;63344;46.980;28.882;2023-11-18T22:22:12;14.38;;;7.20;;
71856;SDS011;63344;46.980;28.882;2023-11-18T22:24:41;16.23;;;6.20;;
71856;SDS011;63344;46.980;28.882;2023-11-18T22:27:09;12.45;;;6.22;;
71856;SDS011;63344;46.980;28.882;2023-11-18T22:29:37;15.77;;;7.78;;
71856;SDS011;63344;46.980;28.882;2023-11-18T22:32:05;10.82;;;6.63;;
71856;SDS011;63344;46.980;28.882;2023-11-18T22:34:36;11.48;;;6.53;;
71856;SDS011;63344;46.980;28.882;2023-11-18T22:37:06;12.65;;;5.93;;
71856;SDS011;63344;46.980;28.882;2023-11-18T22:39:33;11.45;;;6.93;;
71856;SDS011;63344;46.980;28.882;2023-11-18T22:42:04;11.32;;;5.35;;
71856;SDS011;63344;46.980;28.882;2023-11-18T22:44:32;10.80;;;6.55;;
71856;SDS011;63344;46.980;28.882;2023-11-18T22:47:01;11.15;;;6.88;;
71856;SDS011;63344;46.980;28.882;2023-11-18T22:49:29;9.90;;;5.65;;
71856;SDS011;63344;46.980;28.882;2023-11-18T22:51:57;12.02;;;5.90;;
71856;SDS011;63344;46.980;28.882;2023-11-18T22:54:26;9.25;;;5.63;;
71856;SDS011;63344;46.980;28.882;2023-11-18T22:56:54;7.30;;;5.15;;
71856;SDS011;63344;46.980;28.882;2023-11-18T22:59:21;11.50;;;5.32;;
71856;SDS011;63344;46.980;28.882;2023-11-18T23:01:50;11.18;;;6.15;;
71856;SDS011;63344;46.980;28.882;2023-11-18T23:04:17;12.00;;;6.72;;
71856;SDS011;63344;46.980;28.882;2023-11-18T23:06:45;12.30;;;6.60;;
71856;SDS011;63344;46.980;28.882;2023-11-18T23:11:49;10.63;;;6.35;;
71856;SDS011;63344;46.980;28.882;2023-11-18T23:14:16;11.00;;;6.40;;
71856;SDS011;63344;46.980;28.882;2023-11-18T23:16:44;10.13;;;6.13;;
71856;SDS011;63344;46.980;28.882;2023-11-18T23:19:14;12.15;;;7.82;;
71856;SDS011;63344;46.980;28.882;2023-11-18T23:21:45;12.55;;;6.38;;
71856;SDS011;63344;46.980;28.882;2023-11-18T23:24:12;8.93;;;6.15;;
71856;SDS011;63344;46.980;28.882;2023-11-18T23:26:40;6.30;;;3.92;;
71856;SDS011;63344;46.980;28.882;2023-11-18T23:29:07;8.95;;;5.55;;
71856;SDS011;63344;46.980;28.882;2023-11-18T23:31:35;10.15;;;5.50;;
71856;SDS011;63344;46.980;28.882;2023-11-18T23:34:03;8.95;;;4.97;;
71856;SDS011;63344;46.980;28.882;2023-11-18T23:36:34;9.68;;;6.07;;
71856;SDS011;63344;46.980;28.882;2023-11-18T23:39:03;10.18;;;6.65;;
71856;SDS011;63344;46.980;28.882;2023-11-18T23:41:31;10.60;;;5.60;;
71856;SDS011;63344;46.980;28.882;2023-11-18T23:43:59;8.60;;;5.10;;
71856;SDS011;63344;46.980;28.882;2023-11-18T23:46:26;9.60;;;5.80;;
71856;SDS011;63344;46.980;28.882;2023-11-18T23:48:54;12.80;;;7.53;;
71856;SDS011;63344;46.980;28.882;2023-11-18T23:51:22;8.80;;;6.10;;
71856;SDS011;63344;46.980;28.882;2023-11-18T23:53:49;8.18;;;4.88;;
71856;SDS011;63344;46.980;28.882;2023-11-18T23:56:18;9.38;;;6.13;;
71856;SDS011;63344;46.980;28.882;2023-11-18T23:58:45;9.63;;;6.05;;
